Terminal Aerodrome Forecast
Issued by NWS Mobile, AL

Home | Current Version | Previous Version | Text Only | Print | Product List | Glossary On
Versions: 1 2 3 4 5 6 7 8 9 10 11 12 13 14 15 16 17 18 19 20 21 22 23 24 25 26 27 28 29
000
FTUS44 KMOB 301721
TAFPNS
TAF
KPNS 301721Z 3018/3118 03007KT P6SM SCT050 BKN100
     FM302000 18006KT P6SM VCTS BKN050CB OVC100
     FM310000 VRB03KT P6SM SCT250
     FM311600 07005KT P6SM FEW050 SCT250=

USA.gov is the U.S. government's official web portal to all federal, state and local government web resources and services.